createdAt,value
2022-11-13T00:00:21.607Z,54.60
2022-11-13T00:05:31.954Z,54.40
2022-11-13T00:10:42.405Z,54.40
2022-11-13T00:15:53.127Z,54.40
2022-11-13T00:21:03.595Z,54.40
2022-11-13T00:26:20.861Z,54.30
2022-11-13T00:31:37.816Z,54.30
2022-11-13T00:36:54.834Z,54.20
2022-11-13T00:42:11.944Z,54.20
2022-11-13T00:47:28.802Z,54.10
2022-11-13T00:52:45.840Z,54.10
2022-11-13T00:58:02.843Z,53.80
2022-11-13T01:00:29.346Z,54.00
2022-11-13T01:02:55.806Z,54.00
2022-11-13T01:08:13.146Z,53.80
2022-11-13T01:13:29.865Z,53.70
2022-11-13T01:18:46.927Z,53.70
2022-11-13T01:23:57.115Z,53.60
2022-11-13T01:29:07.799Z,53.50
2022-11-13T01:34:18.206Z,53.50
2022-11-13T01:39:28.521Z,53.40
2022-11-13T01:44:38.946Z,53.40
2022-11-13T01:49:49.448Z,52.90
2022-11-13T01:54:59.797Z,53.20
2022-11-13T02:00:10.143Z,53.10
2022-11-13T02:05:20.435Z,53.00
2022-11-13T02:10:30.751Z,53.00
2022-11-13T02:15:41.182Z,53.00
2022-11-13T02:20:51.495Z,52.80
2022-11-13T02:26:01.907Z,52.80
2022-11-13T02:31:12.396Z,52.60
2022-11-13T02:36:22.786Z,52.70
2022-11-13T02:41:39.852Z,52.70
2022-11-13T02:46:56.851Z,52.60
2022-11-13T02:52:13.841Z,52.50
2022-11-13T02:57:30.914Z,52.50
2022-11-13T03:00:03.087Z,52.40
2022-11-13T03:02:29.552Z,52.30
2022-11-13T03:07:46.786Z,52.20
2022-11-13T03:13:03.703Z,52.40
2022-11-13T03:18:20.678Z,52.50
2022-11-13T03:23:37.879Z,52.50
2022-11-13T03:28:48.400Z,52.40
2022-11-13T03:33:58.912Z,52.20
2022-11-13T03:39:09.239Z,52.20
2022-11-13T03:44:19.606Z,52.80
2022-11-13T03:49:29.956Z,52.20
2022-11-13T03:54:40.364Z,52.10
2022-11-13T03:59:50.835Z,52.00
2022-11-13T04:05:01.119Z,51.90
2022-11-13T04:15:52.772Z,51.70
2022-11-13T04:18:19.227Z,51.50
2022-11-13T04:20:45.689Z,51.50
2022-11-13T04:23:12.136Z,51.70
2022-11-13T04:25:38.596Z,51.60
2022-11-13T04:28:05.061Z,51.60
2022-11-13T04:30:31.558Z,51.70
2022-11-13T04:32:58.017Z,51.50
2022-11-13T04:35:24.481Z,51.60
2022-11-13T04:37:50.931Z,51.70
2022-11-13T04:40:17.390Z,51.50
2022-11-13T04:42:43.855Z,51.40
2022-11-13T04:45:10.307Z,51.50
2022-11-13T04:47:36.766Z,51.40
2022-11-13T04:50:03.240Z,51.60
2022-11-13T04:52:29.709Z,51.50
2022-11-13T04:54:56.193Z,51.20
2022-11-13T04:57:22.658Z,51.60
2022-11-13T04:59:49.152Z,51.60
2022-11-13T05:02:15.624Z,51.50
2022-11-13T05:04:42.095Z,51.40
2022-11-13T05:07:08.612Z,51.40
2022-11-13T05:09:35.120Z,50.90
2022-11-13T05:12:01.588Z,51.30
2022-11-13T05:14:28.069Z,51.10
2022-11-13T05:16:54.536Z,51.50
2022-11-13T05:19:20.992Z,51.30
2022-11-13T05:21:47.465Z,51.20
2022-11-13T05:24:13.916Z,51.50
2022-11-13T05:26:40.363Z,51.20
2022-11-13T05:29:06.837Z,51.30
2022-11-13T05:31:33.283Z,51.10
2022-11-13T05:34:05.319Z,50.90
2022-11-13T05:36:32.362Z,51.10
2022-11-13T05:38:58.835Z,51.00
2022-11-13T05:41:25.292Z,50.80
2022-11-13T05:43:56.574Z,51.60
2022-11-13T05:46:25.605Z,50.80
2022-11-13T05:48:52.066Z,50.90
2022-11-13T05:51:18.516Z,50.70
2022-11-13T05:53:44.981Z,50.50
2022-11-13T05:56:11.432Z,50.60
2022-11-13T05:58:37.878Z,50.50
2022-11-13T06:01:04.293Z,50.30
2022-11-13T06:03:30.750Z,50.10
2022-11-13T06:05:57.215Z,50.20
2022-11-13T06:08:23.676Z,50.30
2022-11-13T06:10:50.138Z,49.60
2022-11-13T06:13:16.593Z,49.70
2022-11-13T06:15:43.069Z,49.60
2022-11-13T06:18:09.521Z,49.60
2022-11-13T06:20:35.979Z,49.50
2022-11-13T06:23:02.440Z,49.20
2022-11-13T06:25:28.903Z,49.30
2022-11-13T06:27:55.363Z,49.20
2022-11-13T06:30:21.833Z,49.50
2022-11-13T06:32:48.281Z,48.80
2022-11-13T06:35:14.740Z,49.00
2022-11-13T06:37:41.466Z,48.80
2022-11-13T06:40:07.950Z,48.90
2022-11-13T06:42:34.413Z,48.40
2022-11-13T06:45:00.872Z,48.90
2022-11-13T06:47:27.323Z,48.90
2022-11-13T06:49:53.790Z,48.50
2022-11-13T06:52:20.350Z,48.20
2022-11-13T06:54:46.808Z,48.30
2022-11-13T06:57:13.263Z,48.40
2022-11-13T06:59:39.739Z,48.10
2022-11-13T07:02:06.478Z,48.10
2022-11-13T07:04:32.955Z,48.20
2022-11-13T07:06:59.493Z,48.10
2022-11-13T07:09:30.311Z,48.00
2022-11-13T07:11:56.782Z,47.90
2022-11-13T07:14:23.261Z,48.10
2022-11-13T07:17:08.696Z,47.60
2022-11-13T07:19:36.161Z,48.00
2022-11-13T07:22:02.635Z,47.80
2022-11-13T07:24:29.092Z,47.90
2022-11-13T07:26:55.547Z,48.10
2022-11-13T07:29:22.016Z,48.10
2022-11-13T07:31:48.465Z,47.90
2022-11-13T07:34:14.919Z,47.70
2022-11-13T07:36:41.395Z,47.30
2022-11-13T07:39:07.860Z,47.60
2022-11-13T07:41:34.344Z,47.50
2022-11-13T07:44:02.556Z,47.20
2022-11-13T07:46:30.846Z,47.60
2022-11-13T07:48:57.307Z,47.20
2022-11-13T07:51:23.783Z,47.50
2022-11-13T07:53:50.295Z,47.40
2022-11-13T07:56:22.767Z,47.50
2022-11-13T07:58:49.584Z,47.60
2022-11-13T08:01:16.081Z,47.10
2022-11-13T08:03:42.621Z,47.20
2022-11-13T08:06:09.100Z,47.60
2022-11-13T08:08:35.566Z,47.30
2022-11-13T08:11:02.017Z,47.30
2022-11-13T08:13:28.485Z,46.80
2022-11-13T08:15:54.957Z,47.20
2022-11-13T08:18:21.418Z,47.10
2022-11-13T08:20:47.896Z,47.20
2022-11-13T08:23:14.357Z,47.40
2022-11-13T08:25:40.831Z,47.40
2022-11-13T08:28:12.850Z,47.30
2022-11-13T08:30:39.802Z,47.50
2022-11-13T08:33:06.258Z,47.60
2022-11-13T08:35:32.742Z,47.70
2022-11-13T08:37:59.209Z,47.80
2022-11-13T08:40:25.686Z,48.00
2022-11-13T08:42:52.142Z,48.10
2022-11-13T08:45:18.615Z,48.20
2022-11-13T08:47:45.083Z,48.20
2022-11-13T08:50:11.560Z,48.30
2022-11-13T08:52:38.030Z,48.40
2022-11-13T08:55:04.514Z,48.40
2022-11-13T08:57:30.979Z,48.60
2022-11-13T08:59:57.451Z,48.70
2022-11-13T09:02:23.923Z,48.60
2022-11-13T09:04:50.397Z,48.60
2022-11-13T09:07:16.927Z,48.70
2022-11-13T09:09:43.464Z,48.70
2022-11-13T09:12:09.943Z,48.70
2022-11-13T09:14:36.423Z,48.80
2022-11-13T09:17:02.888Z,48.80
2022-11-13T09:19:29.389Z,48.80
2022-11-13T09:21:55.842Z,48.80
2022-11-13T09:24:22.332Z,48.80
2022-11-13T09:26:48.804Z,48.80
2022-11-13T09:29:15.309Z,48.90
2022-11-13T09:31:41.797Z,48.90
2022-11-13T09:34:08.277Z,48.80
2022-11-13T09:36:34.721Z,48.90
2022-11-13T09:39:01.213Z,48.70
2022-11-13T09:41:27.670Z,48.80
2022-11-13T09:43:59.316Z,48.60
2022-11-13T09:46:26.395Z,48.50
2022-11-13T09:48:52.875Z,48.40
2022-11-13T09:51:19.320Z,48.70
2022-11-13T09:53:45.807Z,48.60
2022-11-13T09:56:12.247Z,48.30
2022-11-13T09:58:38.713Z,48.20
2022-11-13T10:01:05.190Z,48.30
2022-11-13T10:04:00.348Z,48.40
2022-11-13T10:06:18.111Z,48.50
2022-11-13T10:08:44.593Z,48.40
2022-11-13T10:11:11.065Z,48.50
2022-11-13T10:13:37.542Z,49.00
2022-11-13T10:16:04.013Z,48.50
2022-11-13T10:18:31.062Z,48.70
2022-11-13T10:20:57.706Z,48.50
2022-11-13T10:23:24.205Z,48.70
2022-11-13T10:25:50.672Z,48.50
2022-11-13T10:28:43.691Z,48.80
2022-11-13T10:31:03.591Z,48.50
2022-11-13T10:33:30.370Z,48.60
2022-11-13T10:35:57.159Z,48.60
2022-11-13T10:38:23.648Z,48.80
2022-11-13T10:40:50.106Z,48.70
2022-11-13T10:43:16.609Z,48.90
2022-11-13T10:45:43.079Z,49.00
2022-11-13T10:48:09.557Z,48.90
2022-11-13T10:50:36.013Z,49.10
2022-11-13T10:53:02.490Z,49.00
2022-11-13T10:55:28.952Z,49.00
2022-11-13T10:57:56.596Z,49.00
2022-11-13T11:00:23.202Z,49.10
2022-11-13T11:02:49.678Z,49.10
2022-11-13T11:05:16.157Z,49.10
2022-11-13T11:07:42.628Z,49.10
2022-11-13T11:10:09.119Z,49.20
2022-11-13T11:12:35.583Z,49.20
2022-11-13T11:15:02.050Z,49.20
2022-11-13T11:17:28.499Z,49.30
2022-11-13T11:19:54.962Z,49.30
2022-11-13T11:22:21.428Z,49.20
2022-11-13T11:24:47.909Z,49.30
2022-11-13T11:27:14.373Z,49.30
2022-11-13T11:29:40.841Z,49.40
2022-11-13T11:32:07.316Z,49.40
2022-11-13T11:34:33.778Z,49.60
2022-11-13T11:37:00.253Z,49.40
2022-11-13T11:39:26.723Z,49.60
2022-11-13T11:41:53.187Z,49.60
2022-11-13T11:44:19.643Z,49.60
2022-11-13T11:46:46.959Z,49.70
2022-11-13T11:49:13.488Z,49.80
2022-11-13T11:51:39.964Z,49.70
2022-11-13T11:54:06.457Z,49.80
2022-11-13T11:56:32.927Z,49.80
2022-11-13T11:58:59.388Z,49.80
2022-11-13T12:01:25.840Z,50.00
2022-11-13T12:03:52.308Z,50.00
2022-11-13T12:06:18.760Z,50.00
2022-11-13T12:08:45.228Z,49.90
2022-11-13T12:11:11.707Z,50.00
2022-11-13T12:13:38.187Z,50.00
2022-11-13T12:16:04.650Z,50.20
2022-11-13T12:18:31.424Z,50.20
2022-11-13T12:20:58.054Z,50.20
2022-11-13T12:23:24.532Z,50.20
2022-11-13T12:25:50.983Z,50.30
2022-11-13T12:28:17.427Z,50.40
2022-11-13T12:30:43.891Z,50.30
2022-11-13T12:33:10.358Z,50.40
2022-11-13T12:35:36.845Z,50.60
2022-11-13T12:38:03.305Z,50.50
2022-11-13T12:40:29.781Z,50.60
2022-11-13T12:42:56.247Z,50.60
2022-11-13T12:45:22.726Z,50.60
2022-11-13T12:47:49.198Z,50.60
2022-11-13T12:50:15.677Z,50.70
2022-11-13T12:52:42.148Z,50.70
2022-11-13T12:55:08.633Z,50.70
2022-11-13T12:57:35.106Z,50.70
2022-11-13T13:00:01.626Z,50.80
2022-11-13T13:02:28.110Z,50.90
2022-11-13T13:04:54.584Z,50.90
2022-11-13T13:07:21.101Z,51.10
2022-11-13T13:09:47.597Z,51.10
2022-11-13T13:12:14.059Z,51.10
2022-11-13T13:14:40.530Z,51.10
2022-11-13T13:17:06.989Z,51.10
2022-11-13T13:19:33.439Z,51.20
2022-11-13T13:21:59.889Z,51.10
2022-11-13T13:24:26.342Z,51.20
2022-11-13T13:26:52.889Z,51.20
2022-11-13T13:29:19.406Z,51.20
2022-11-13T13:31:45.875Z,51.20
2022-11-13T13:34:12.333Z,51.30
2022-11-13T13:36:38.781Z,51.30
2022-11-13T13:39:05.254Z,51.20
2022-11-13T13:41:31.703Z,51.40
2022-11-13T13:43:58.175Z,51.30
2022-11-13T13:46:24.641Z,51.30
2022-11-13T13:48:51.123Z,51.30
2022-11-13T13:51:17.592Z,51.30
2022-11-13T13:53:44.069Z,51.50
2022-11-13T13:56:10.517Z,51.50
2022-11-13T13:58:36.993Z,51.60
2022-11-13T14:01:18.409Z,51.50
2022-11-13T14:03:45.643Z,51.60
2022-11-13T14:06:12.128Z,51.60
2022-11-13T14:08:38.601Z,51.60
2022-11-13T14:11:05.059Z,51.70
2022-11-13T14:13:31.543Z,51.50
2022-11-13T14:15:58.007Z,51.70
2022-11-13T14:18:24.492Z,51.60
2022-11-13T14:20:50.962Z,51.60
2022-11-13T14:23:17.422Z,51.80
2022-11-13T14:25:43.870Z,51.70
2022-11-13T14:28:10.336Z,51.70
2022-11-13T14:30:36.799Z,52.40
2022-11-13T14:33:03.266Z,51.60
2022-11-13T14:35:29.734Z,51.70
2022-11-13T14:37:56.187Z,51.70
2022-11-13T14:40:22.635Z,51.70
2022-11-13T14:42:49.093Z,51.70
2022-11-13T14:45:15.577Z,51.70
2022-11-13T14:47:42.059Z,51.80
2022-11-13T14:50:08.510Z,51.80
2022-11-13T14:52:34.954Z,51.70
2022-11-13T14:55:14.820Z,51.70
2022-11-13T14:57:41.911Z,51.60
2022-11-13T15:00:08.424Z,51.70
2022-11-13T15:02:34.871Z,51.80
2022-11-13T15:05:01.350Z,51.90
2022-11-13T15:07:27.868Z,51.80
2022-11-13T15:09:54.388Z,51.70
2022-11-13T15:12:20.843Z,51.70
2022-11-13T15:14:47.322Z,51.80
2022-11-13T15:17:13.779Z,52.00
2022-11-13T15:19:40.234Z,52.10
2022-11-13T15:22:25.930Z,52.00
2022-11-13T15:24:53.156Z,52.10
2022-11-13T15:27:19.615Z,52.00
2022-11-13T15:29:46.128Z,52.00
2022-11-13T15:32:12.573Z,52.00
2022-11-13T15:34:39.054Z,52.20
2022-11-13T15:37:06.668Z,52.20
2022-11-13T15:39:33.175Z,52.40
2022-11-13T15:41:59.652Z,52.50
2022-11-13T15:44:26.633Z,52.70
2022-11-13T15:46:53.102Z,52.60
2022-11-13T15:49:19.575Z,52.70
2022-11-13T15:51:46.042Z,52.90
2022-11-13T15:54:12.505Z,52.80
2022-11-13T15:56:38.973Z,53.00
2022-11-13T15:59:05.430Z,52.90
2022-11-13T16:01:31.940Z,53.00
2022-11-13T16:03:58.477Z,53.10
2022-11-13T16:06:24.925Z,53.10
2022-11-13T16:08:51.408Z,53.20
2022-11-13T16:11:17.888Z,53.30
2022-11-13T16:13:44.343Z,53.20
2022-11-13T16:16:10.814Z,53.20
2022-11-13T16:18:37.261Z,53.30
2022-11-13T16:21:03.736Z,53.20
2022-11-13T16:23:30.584Z,53.30
2022-11-13T16:25:57.460Z,53.10
2022-11-13T16:28:23.917Z,53.00
2022-11-13T16:30:50.392Z,52.90
2022-11-13T16:33:16.861Z,52.70
2022-11-13T16:35:43.322Z,52.60
2022-11-13T16:38:09.783Z,52.70
2022-11-13T16:40:36.269Z,52.50
2022-11-13T16:43:02.733Z,52.70
2022-11-13T16:45:29.199Z,52.70
2022-11-13T16:47:55.663Z,52.60
2022-11-13T16:50:23.724Z,52.60
2022-11-13T16:52:50.672Z,52.60
2022-11-13T16:55:17.142Z,52.70
2022-11-13T16:57:43.594Z,52.70
2022-11-13T17:00:10.073Z,52.80
2022-11-13T17:02:36.523Z,52.80
2022-11-13T17:05:02.995Z,52.80
2022-11-13T17:07:29.532Z,52.80
2022-11-13T17:10:24.215Z,52.80
2022-11-13T17:12:42.493Z,52.80
2022-11-13T17:15:08.979Z,52.80
2022-11-13T17:17:35.487Z,52.70
2022-11-13T17:20:01.970Z,52.90
2022-11-13T17:22:28.431Z,53.50
2022-11-13T17:24:54.885Z,52.80
2022-11-13T17:27:21.361Z,52.80
2022-11-13T17:29:47.812Z,52.80
2022-11-13T17:32:14.259Z,52.80
2022-11-13T17:34:40.711Z,52.80
2022-11-13T17:37:07.197Z,52.80
2022-11-13T17:39:33.671Z,52.90
2022-11-13T17:42:00.187Z,52.80
2022-11-13T17:44:26.647Z,52.80
2022-11-13T17:46:53.107Z,52.80
2022-11-13T17:49:19.571Z,52.70
2022-11-13T17:51:46.044Z,52.70
2022-11-13T17:54:12.505Z,52.70
2022-11-13T17:56:38.981Z,52.70
2022-11-13T17:59:05.442Z,52.70
2022-11-13T18:01:31.957Z,52.60
2022-11-13T18:03:58.477Z,52.60
2022-11-13T18:06:24.958Z,52.50
2022-11-13T18:08:51.427Z,52.50
2022-11-13T18:11:17.900Z,52.50
2022-11-13T18:13:44.356Z,52.60
2022-11-13T18:16:10.819Z,52.60
2022-11-13T18:18:37.277Z,52.70
2022-11-13T18:21:21.826Z,52.60
2022-11-13T18:23:48.776Z,52.50
2022-11-13T18:26:15.247Z,52.50
2022-11-13T18:28:41.705Z,52.50
2022-11-13T18:31:08.183Z,52.40
2022-11-13T18:33:34.655Z,52.50
2022-11-13T18:36:01.120Z,52.40
2022-11-13T18:38:27.567Z,52.40
2022-11-13T18:40:54.848Z,52.40
2022-11-13T18:43:21.326Z,52.30
2022-11-13T18:45:47.804Z,52.30
2022-11-13T18:48:14.301Z,52.30
2022-11-13T18:50:40.788Z,52.30
2022-11-13T18:53:07.266Z,52.20
2022-11-13T18:55:33.734Z,52.30
2022-11-13T18:58:00.198Z,52.20
2022-11-13T19:00:26.661Z,52.20
2022-11-13T19:02:53.130Z,52.10
2022-11-13T19:05:19.595Z,52.10
2022-11-13T19:07:46.038Z,52.20
2022-11-13T19:10:12.503Z,52.00
2022-11-13T19:12:38.967Z,52.10
2022-11-13T19:15:05.424Z,52.00
2022-11-13T19:17:31.887Z,52.00
2022-11-13T19:19:58.338Z,51.90
2022-11-13T19:22:24.809Z,52.00
2022-11-13T19:24:51.264Z,51.90
2022-11-13T19:27:17.725Z,51.90
2022-11-13T19:29:44.185Z,51.90
2022-11-13T19:32:12.865Z,51.90
2022-11-13T19:34:43.671Z,51.90
2022-11-13T19:37:17.778Z,51.70
2022-11-13T19:39:45.483Z,51.70
2022-11-13T19:42:12.861Z,51.70
2022-11-13T19:44:39.313Z,51.70
2022-11-13T19:47:05.783Z,51.60
2022-11-13T19:49:32.270Z,51.70
2022-11-13T19:51:58.716Z,51.60
2022-11-13T19:54:25.195Z,51.60
2022-11-13T19:56:51.683Z,51.50
2022-11-13T19:59:18.135Z,51.60
2022-11-13T20:01:44.683Z,51.60
2022-11-13T20:04:11.170Z,51.40
2022-11-13T20:06:37.710Z,51.40
2022-11-13T20:09:04.316Z,51.50
2022-11-13T20:11:30.799Z,51.50
2022-11-13T20:13:57.263Z,51.40
2022-11-13T20:16:23.844Z,51.40
2022-11-13T20:18:53.415Z,51.40
2022-11-13T20:21:19.861Z,51.50
2022-11-13T20:23:46.337Z,51.40
2022-11-13T20:26:12.807Z,51.30
2022-11-13T20:28:39.274Z,51.40
2022-11-13T20:31:05.758Z,51.30
2022-11-13T20:33:32.230Z,51.20
2022-11-13T20:35:58.680Z,52.00
2022-11-13T20:38:25.174Z,51.20
2022-11-13T20:40:51.623Z,51.30
2022-11-13T20:43:18.072Z,51.20
2022-11-13T20:45:44.507Z,51.20
2022-11-13T20:48:10.966Z,51.20
2022-11-13T20:50:37.432Z,51.20
2022-11-13T20:53:03.923Z,51.10
2022-11-13T20:55:30.396Z,51.00
2022-11-13T20:57:56.860Z,51.10
2022-11-13T21:00:23.324Z,51.10
2022-11-13T21:02:49.810Z,51.00
2022-11-13T21:05:16.255Z,51.00
2022-11-13T21:07:42.735Z,51.00
2022-11-13T21:10:09.202Z,50.90
2022-11-13T21:12:35.680Z,51.00
2022-11-13T21:15:02.146Z,50.80
2022-11-13T21:17:28.610Z,50.80
2022-11-13T21:19:57.550Z,50.90
2022-11-13T21:22:24.288Z,50.80
2022-11-13T21:24:50.749Z,50.80
2022-11-13T21:27:17.217Z,50.90
2022-11-13T21:29:43.710Z,51.00
2022-11-13T21:32:10.199Z,50.80
2022-11-13T21:34:36.658Z,50.70
2022-11-13T21:37:03.140Z,50.90
2022-11-13T21:39:29.608Z,50.80
2022-11-13T21:42:01.006Z,50.80
2022-11-13T21:44:27.462Z,50.60
2022-11-13T21:46:53.960Z,50.70
2022-11-13T21:49:20.431Z,50.60
2022-11-13T21:51:46.910Z,50.60
2022-11-13T21:54:13.371Z,50.50
2022-11-13T21:56:39.846Z,50.60
2022-11-13T21:59:06.298Z,50.70
2022-11-13T22:01:38.248Z,50.60
2022-11-13T22:04:05.192Z,50.40
2022-11-13T22:06:31.691Z,50.60
2022-11-13T22:08:58.152Z,50.50
2022-11-13T22:11:24.661Z,50.50
2022-11-13T22:13:51.136Z,50.50
2022-11-13T22:16:17.605Z,50.40
2022-11-13T22:18:44.128Z,50.40
2022-11-13T22:21:12.028Z,50.30
2022-11-13T22:23:38.485Z,50.30
2022-11-13T22:26:04.949Z,50.40
2022-11-13T22:28:31.721Z,50.20
2022-11-13T22:30:58.434Z,50.20
2022-11-13T22:33:24.891Z,50.40
2022-11-13T22:35:51.346Z,50.30
2022-11-13T22:38:17.802Z,50.20
2022-11-13T22:40:44.273Z,50.10
2022-11-13T22:43:10.759Z,50.10
2022-11-13T22:45:37.216Z,50.20
2022-11-13T22:48:03.678Z,50.20
2022-11-13T22:50:30.122Z,50.10
2022-11-13T22:52:56.594Z,50.20
2022-11-13T22:55:23.054Z,50.30
2022-11-13T22:57:49.516Z,50.20
2022-11-13T23:00:15.975Z,50.00
2022-11-13T23:02:47.142Z,50.10
2022-11-13T23:05:13.960Z,49.90
2022-11-13T23:07:40.430Z,49.90
2022-11-13T23:10:06.879Z,50.00
2022-11-13T23:12:33.351Z,50.00
2022-11-13T23:14:59.814Z,50.00
2022-11-13T23:17:26.307Z,50.00
2022-11-13T23:19:52.781Z,50.00
2022-11-13T23:22:19.248Z,50.00
2022-11-13T23:24:45.700Z,49.80
2022-11-13T23:27:12.202Z,49.90
2022-11-13T23:29:38.668Z,49.70
2022-11-13T23:32:05.146Z,49.90
2022-11-13T23:34:57.907Z,50.00
2022-11-13T23:37:18.067Z,49.70
2022-11-13T23:39:44.534Z,49.90
2022-11-13T23:42:11.023Z,49.90
2022-11-13T23:44:37.502Z,50.00
2022-11-13T23:47:03.955Z,49.70
2022-11-13T23:49:31.126Z,49.60
2022-11-13T23:51:57.621Z,49.70
2022-11-13T23:54:24.075Z,50.20
2022-11-13T23:56:50.519Z,49.70
2022-11-13T23:59:17.000Z,49.60
